Time;durP1;ratioP1;P1;durP2;ratioP2;P2;SDS_P1;SDS_P2;PMS_P1;PMS_P2;Temp;Humidity;BMP_temperature;BMP_pressure;BME280_temperature;BME280_humidity;BME280_pressure;Samples;Min_cycle;Max_cycle;Signal;HPM_P1;HPM_P2
2022/06/09 00:01:23;;;;;;;11.40;2.72;;;;;;;12.99;100.00;100614.16;4944684;28;20070;-76
2022/06/09 00:04:09;;;;;;;7.18;1.80;;;;;;;12.98;100.00;100618.56;4950583;28;20050;-77
2022/06/09 00:06:41;;;;;;;13.70;2.38;;;;;;;12.99;100.00;100625.38;4952036;28;20074;-73
2022/06/09 00:09:07;;;;;;;12.93;2.20;;;;;;;12.94;100.00;100634.69;4945400;28;20027;-76
2022/06/09 00:11:40;;;;;;;11.02;2.15;;;;;;;12.98;100.00;100622.97;4947681;28;20031;-75
2022/06/09 00:14:07;;;;;;;8.70;2.10;;;;;;;12.92;100.00;100631.47;4959316;28;20116;-75
2022/06/09 00:16:34;;;;;;;7.82;1.95;;;;;;;12.90;100.00;100639.44;4955197;28;20047;-76
2022/06/09 00:18:59;;;;;;;9.43;1.80;;;;;;;12.82;100.00;100639.50;4951118;28;20046;-75
2022/06/09 00:21:25;;;;;;;6.53;2.05;;;;;;;12.78;100.00;100640.84;4951081;28;20091;-75
2022/06/09 00:23:51;;;;;;;8.10;2.63;;;;;;;12.74;100.00;100642.19;4948127;28;20090;-74
2022/06/09 00:26:16;;;;;;;12.52;2.30;;;;;;;12.70;100.00;100641.72;4950690;28;20035;-76
2022/06/09 00:28:43;;;;;;;9.50;2.47;;;;;;;12.69;100.00;100641.91;4951837;28;20555;-76
2022/06/09 00:31:08;;;;;;;13.88;2.10;;;;;;;12.66;100.00;100637.84;4931364;28;20066;-76
2022/06/09 00:33:33;;;;;;;11.38;2.20;;;;;;;12.72;100.00;100641.56;4929323;29;20089;-75
2022/06/09 00:35:59;;;;;;;17.83;2.83;;;;;;;12.69;100.00;100641.91;4946342;28;20797;-75
2022/06/09 00:38:24;;;;;;;10.70;2.22;;;;;;;12.70;100.00;100643.53;4942936;28;20046;-77
2022/06/09 00:40:50;;;;;;;6.20;1.75;;;;;;;12.62;100.00;100647.78;4947486;28;20050;-76
2022/06/09 00:43:16;;;;;;;7.22;1.80;;;;;;;12.59;100.00;100645.53;4946479;28;20035;-75
2022/06/09 00:45:52;;;;;;;6.53;1.73;;;;;;;12.57;100.00;100650.09;4949516;28;20400;-76
2022/06/09 00:48:46;;;;;;;19.92;3.13;;;;;;;12.54;100.00;100641.81;4946608;28;20064;-74
2022/06/09 00:51:34;;;;;;;8.57;2.15;;;;;;;12.56;100.00;100645.88;4945033;28;20598;-76
2022/06/09 00:54:14;;;;;;;8.18;2.15;;;;;;;12.50;100.00;100651.75;4949003;28;20039;-75
2022/06/09 00:56:51;;;;;;;11.93;2.42;;;;;;;12.48;100.00;100652.94;4947786;28;20500;-76
2022/06/09 00:59:21;;;;;;;15.90;2.45;;;;;;;12.45;100.00;100648.84;4946531;28;20036;-77
2022/06/09 01:01:47;;;;;;;13.80;2.70;;;;;;;12.47;100.00;100649.53;4932884;28;20089;-75
2022/06/09 01:04:16;;;;;;;13.65;2.08;;;;;;;12.51;100.00;100650.78;4950175;28;20122;-76
2022/06/09 01:06:56;;;;;;;9.32;2.65;;;;;;;12.44;100.00;100661.06;4960705;28;20031;-76
2022/06/09 01:09:25;;;;;;;13.32;2.78;;;;;;;12.43;100.00;100654.25;4943360;28;20046;-76
2022/06/09 01:11:54;;;;;;;14.35;2.35;;;;;;;12.43;100.00;100656.84;4944770;28;20138;-76
2022/06/09 01:14:22;;;;;;;9.63;2.25;;;;;;;12.41;100.00;100650.19;4945345;28;20170;-76
2022/06/09 01:17:00;;;;;;;16.00;2.83;;;;;;;12.46;100.00;100651.28;4950231;28;20043;-76
2022/06/09 01:19:38;;;;;;;12.73;2.20;;;;;;;12.41;100.00;100655.38;4952736;28;20069;-75
2022/06/09 01:22:25;;;;;;;8.50;2.40;;;;;;;12.36;100.00;100668.13;4946932;28;20097;-73
2022/06/09 01:25:28;;;;;;;12.15;2.40;;;;;;;12.34;100.00;100668.28;4961117;28;20130;-76
2022/06/09 01:28:12;;;;;;;8.20;2.10;;;;;;;12.29;100.00;100675.78;4947182;28;20054;-76
2022/06/09 01:30:59;;;;;;;15.68;2.67;;;;;;;12.36;100.00;100675.91;4925228;28;20098;-76
2022/06/09 01:33:38;;;;;;;15.93;2.47;;;;;;;12.34;100.00;100680.44;4947414;28;20046;-76
2022/06/09 01:36:11;;;;;;;13.07;2.67;;;;;;;12.35;100.00;100680.28;4943114;28;20028;-72
2022/06/09 01:38:53;;;;;;;21.75;3.03;;;;;;;12.36;100.00;100681.13;4944744;28;20081;-76
2022/06/09 01:41:20;;;;;;;14.82;2.60;;;;;;;12.48;100.00;100682.34;4939689;28;20451;-75
2022/06/09 01:43:47;;;;;;;20.60;2.40;;;;;;;12.38;100.00;100679.94;4948101;28;20385;-76
2022/06/09 01:46:33;;;;;;;12.60;2.10;;;;;;;12.31;100.00;100692.00;4947761;28;20039;-76
2022/06/09 01:49:05;;;;;;;14.82;2.17;;;;;;;12.34;100.00;100690.84;4945297;28;20031;-74
2022/06/09 01:51:35;;;;;;;14.32;3.53;;;;;;;12.35;100.00;100690.69;4943625;28;20107;-76
2022/06/09 01:54:05;;;;;;;13.52;2.80;;;;;;;12.42;100.00;100696.03;4946207;28;20089;-76
2022/06/09 01:56:53;;;;;;;11.15;2.65;;;;;;;12.35;100.00;100698.47;4930732;28;20062;-73
2022/06/09 01:59:28;;;;;;;13.43;3.63;;;;;;;12.45;100.00;100690.47;4961852;28;20031;-74
2022/06/09 02:01:57;;;;;;;12.75;2.63;;;;;;;12.45;100.00;100696.50;4948047;28;20594;-75
2022/06/09 02:04:43;;;;;;;11.13;3.10;;;;;;;12.45;100.00;100695.66;4940355;28;20409;-76
2022/06/09 02:07:10;;;;;;;14.77;2.83;;;;;;;12.42;100.00;100704.63;4955440;28;20141;-76
2022/06/09 02:09:37;;;;;;;13.98;3.22;;;;;;;12.45;100.00;100704.31;4942962;28;20046;-74
2022/06/09 02:12:15;;;;;;;15.65;3.10;;;;;;;12.42;100.00;100703.81;4927114;29;20035;-76
2022/06/09 02:14:47;;;;;;;10.25;2.95;;;;;;;12.40;100.00;100701.38;4943379;28;20045;-75
2022/06/09 02:17:13;;;;;;;16.77;4.47;;;;;;;12.44;100.00;100712.25;4946550;28;20039;-73
2022/06/09 02:19:40;;;;;;;13.20;2.75;;;;;;;12.41;100.00;100717.78;4927277;28;20526;-75
2022/06/09 02:22:09;;;;;;;14.70;3.00;;;;;;;12.43;100.00;100719.25;4946701;28;20043;-75
2022/06/09 02:24:34;;;;;;;14.25;3.53;;;;;;;12.41;100.00;100720.41;4959192;28;20391;-75
2022/06/09 02:27:00;;;;;;;19.75;3.70;;;;;;;12.53;100.00;100719.06;4945851;28;20035;-75
2022/06/09 02:29:27;;;;;;;14.18;2.58;;;;;;;12.46;100.00;100720.72;4943564;28;20105;-74
2022/06/09 02:31:53;;;;;;;10.68;2.58;;;;;;;12.43;100.00;100723.63;4928776;28;20043;-76
2022/06/09 02:34:18;;;;;;;14.70;3.53;;;;;;;12.45;100.00;100725.09;4923588;28;20647;-76
2022/06/09 02:36:44;;;;;;;15.23;3.17;;;;;;;12.42;100.00;100735.84;4941017;28;20034;-76
2022/06/09 02:39:10;;;;;;;14.07;3.55;;;;;;;12.49;100.00;100732.53;4939733;28;20047;-74
2022/06/09 02:41:36;;;;;;;17.50;2.95;;;;;;;12.44;100.00;100730.47;4945885;28;20105;-75
2022/06/09 02:44:02;;;;;;;16.55;4.50;;;;;;;12.49;100.00;100737.75;4940212;28;20046;-75
2022/06/09 02:46:28;;;;;;;15.35;3.15;;;;;;;12.50;100.00;100734.19;4925687;28;20043;-76
2022/06/09 02:48:54;;;;;;;17.95;3.42;;;;;;;12.48;100.00;100738.75;4940732;28;20042;-73
2022/06/09 02:51:34;;;;;;;16.85;3.42;;;;;;;12.43;100.00;100737.47;4956145;28;20058;-76
2022/06/09 02:54:09;;;;;;;13.90;3.92;;;;;;;12.39;100.00;100738.75;4944404;28;20035;-76
2022/06/09 02:56:35;;;;;;;13.32;3.58;;;;;;;12.42;100.00;100746.22;4945432;28;20036;-73
2022/06/09 02:59:00;;;;;;;21.20;3.80;;;;;;;12.40;100.00;100745.59;4959573;28;20050;-75
2022/06/09 03:01:27;;;;;;;13.48;3.47;;;;;;;12.42;100.00;100743.63;4922966;28;20048;-75
2022/06/09 03:03:53;;;;;;;14.00;3.72;;;;;;;12.44;100.00;100743.47;4940908;28;20544;-75
2022/06/09 03:06:18;;;;;;;21.40;4.15;;;;;;;12.41;100.00;100742.03;4944952;28;20039;-76
2022/06/09 03:08:45;;;;;;;15.70;4.13;;;;;;;12.43;100.00;100747.03;4941124;28;20031;-76
2022/06/09 03:11:11;;;;;;;22.17;4.75;;;;;;;12.43;100.00;100752.25;4955067;28;20070;-74
2022/06/09 03:13:38;;;;;;;25.40;4.45;;;;;;;12.56;100.00;100751.69;4958195;28;20050;-76
2022/06/09 03:16:04;;;;;;;15.57;4.35;;;;;;;12.58;100.00;100765.34;4943310;28;20023;-74
2022/06/09 03:18:30;;;;;;;22.23;5.03;;;;;;;12.59;100.00;100765.19;4946027;28;20265;-76
2022/06/09 03:20:55;;;;;;;22.50;4.80;;;;;;;12.66;100.00;100767.91;4939210;28;20576;-73
2022/06/09 03:23:21;;;;;;;13.98;4.53;;;;;;;12.64;100.00;100767.28;4940512;28;20051;-76
2022/06/09 03:25:48;;;;;;;18.38;4.47;;;;;;;12.58;100.00;100775.75;4943472;28;20077;-76
2022/06/09 03:28:13;;;;;;;29.08;4.82;;;;;;;12.57;100.00;100774.94;4942450;28;20071;-75
2022/06/09 03:30:39;;;;;;;18.08;4.38;;;;;;;12.55;100.00;100787.31;4941658;28;20045;-75
2022/06/09 03:33:04;;;;;;;27.73;5.57;;;;;;;12.58;100.00;100786.97;4942453;28;20039;-75
2022/06/09 03:35:30;;;;;;;20.42;4.32;;;;;;;12.59;100.00;100793.78;4940498;28;20063;-77
2022/06/09 03:37:56;;;;;;;30.27;5.38;;;;;;;12.62;100.00;100792.63;4944685;28;20034;-76
2022/06/09 03:40:23;;;;;;;21.85;4.55;;;;;;;12.62;100.00;100795.22;4946274;28;20023;-76
2022/06/09 03:42:49;;;;;;;25.17;5.45;;;;;;;12.81;100.00;100802.63;4947069;28;20133;-75
2022/06/09 03:45:15;;;;;;;19.10;4.50;;;;;;;12.72;100.00;100795.06;4945226;28;20638;-74
2022/06/09 03:47:41;;;;;;;19.98;6.20;;;;;;;12.63;100.00;100797.66;4941627;28;20118;-74
2022/06/09 03:50:08;;;;;;;18.85;5.28;;;;;;;12.64;100.00;100799.31;4948104;28;20535;-77
2022/06/09 03:52:34;;;;;;;26.98;5.85;;;;;;;12.65;100.00;100800.09;4930206;28;20046;-75
2022/06/09 03:54:59;;;;;;;22.30;6.70;;;;;;;12.75;100.00;100808.53;4960033;28;20043;-76
2022/06/09 03:57:25;;;;;;;24.25;5.85;;;;;;;12.70;100.00;100813.44;4945863;28;20039;-75
2022/06/09 03:59:51;;;;;;;24.27;7.35;;;;;;;12.65;100.00;100816.53;4945981;28;20035;-77
2022/06/09 04:02:16;;;;;;;23.08;6.60;;;;;;;12.71;100.00;100814.22;4947204;28;21574;-76
2022/06/09 04:04:42;;;;;;;25.00;6.10;;;;;;;12.76;100.00;100824.94;4949910;28;20119;-76
2022/06/09 04:07:10;;;;;;;25.77;7.47;;;;;;;12.67;100.00;100824.16;4931814;29;20508;-74
2022/06/09 04:09:35;;;;;;;30.63;6.55;;;;;;;12.71;100.00;100835.84;4944304;28;20034;-75
2022/06/09 04:12:01;;;;;;;24.00;6.90;;;;;;;12.65;100.00;100834.72;4948764;28;20043;-75
2022/06/09 04:14:26;;;;;;;26.00;6.95;;;;;;;12.71;100.00;100845.44;4944925;28;20035;-77
2022/06/09 04:16:55;;;;;;;30.52;7.50;;;;;;;12.70;100.00;100838.63;4947489;28;20121;-76
2022/06/09 04:19:22;;;;;;;22.00;7.22;;;;;;;12.72;100.00;100839.28;4940336;28;20039;-75
2022/06/09 04:21:48;;;;;;;22.75;8.32;;;;;;;12.90;100.00;100844.22;4950654;28;20484;-73
2022/06/09 04:24:13;;;;;;;24.27;8.88;;;;;;;12.84;100.00;100841.31;4944477;28;20071;-74
2022/06/09 04:26:41;;;;;;;33.17;8.70;;;;;;;12.82;100.00;100845.06;4946783;28;20625;-77
2022/06/09 04:29:08;;;;;;;37.47;8.50;;;;;;;12.82;100.00;100839.88;4945448;28;20045;-74
2022/06/09 04:31:34;;;;;;;31.13;9.70;;;;;;;12.88;100.00;100843.59;4960121;28;20042;-76
2022/06/09 04:33:59;;;;;;;23.65;7.65;;;;;;;13.00;100.00;100840.44;4943732;28;20039;-75
2022/06/09 04:36:25;;;;;;;26.30;6.97;;;;;;;13.01;100.00;100843.84;4943735;28;20043;-77
2022/06/09 04:38:50;;;;;;;26.42;7.30;;;;;;;12.99;100.00;100841.41;4944632;28;20503;-76
2022/06/09 04:41:17;;;;;;;31.17;8.23;;;;;;;13.05;100.00;100845.94;4946968;28;20035;-74
2022/06/09 04:43:45;;;;;;;22.17;7.07;;;;;;;13.04;100.00;100846.91;4946464;28;20035;-75
2022/06/09 04:46:14;;;;;;;32.28;7.82;;;;;;;13.07;100.00;100857.97;4960766;28;20421;-74
2022/06/09 04:48:40;;;;;;;25.70;6.50;;;;;;;13.13;100.00;100858.13;4959251;28;20102;-77
2022/06/09 04:51:07;;;;;;;21.55;6.22;;;;;;;13.12;100.00;100856.47;4943235;28;20028;-75
2022/06/09 04:53:33;;;;;;;26.58;6.93;;;;;;;13.17;100.00;100858.59;4947543;28;20066;-76
2022/06/09 04:55:59;;;;;;;24.00;6.57;;;;;;;13.19;100.00;100861.81;4946090;28;20097;-76
2022/06/09 04:58:24;;;;;;;23.55;6.30;;;;;;;13.24;100.00;100865.53;4944290;28;20031;-76
2022/06/09 05:00:50;;;;;;;22.60;6.32;;;;;;;13.27;100.00;100868.78;4944679;28;20551;-76
2022/06/09 05:03:16;;;;;;;28.50;6.93;;;;;;;13.28;100.00;100866.00;4943279;28;20044;-74
2022/06/09 05:05:45;;;;;;;23.88;6.13;;;;;;;13.30;100.00;100866.66;4946181;28;20053;-77
2022/06/09 05:08:14;;;;;;;28.95;6.35;;;;;;;13.42;100.00;100867.06;4941208;28;20316;-74
2022/06/09 05:10:41;;;;;;;26.73;6.50;;;;;;;13.50;100.00;100879.22;4942525;28;20488;-76
2022/06/09 05:13:07;;;;;;;26.77;6.80;;;;;;;13.50;100.00;100874.81;4947051;28;20042;-75
2022/06/09 05:15:37;;;;;;;22.10;5.90;;;;;;;13.46;100.00;100888.38;4945785;28;20045;-76
2022/06/09 05:18:04;;;;;;;29.15;6.65;;;;;;;13.47;100.00;100888.22;4942490;28;20039;-74
2022/06/09 05:20:30;;;;;;;23.77;7.38;;;;;;;13.43;100.00;100886.94;4945185;28;20171;-77
2022/06/09 05:22:55;;;;;;;14.15;5.78;;;;;;;13.51;100.00;100891.28;4946554;28;20173;-77
2022/06/09 05:25:21;;;;;;;23.13;7.10;;;;;;;13.46;100.00;100899.59;4946145;28;20094;-76
2022/06/09 05:27:47;;;;;;;24.27;6.50;;;;;;;13.36;100.00;100893.81;4948720;28;20035;-75
2022/06/09 05:30:19;;;;;;;27.98;7.07;;;;;;;13.44;100.00;100902.38;4946493;28;20368;-74
2022/06/09 05:32:45;;;;;;;22.00;6.53;;;;;;;13.50;100.00;100911.28;4944730;28;20050;-75
2022/06/09 05:35:11;;;;;;;30.23;7.70;;;;;;;13.55;100.00;100910.78;4942335;28;20156;-74
2022/06/09 05:45:55;;;;;;;25.33;7.90;;;;;;;13.69;99.46;100925.66;4938985;28;20042;-77
2022/06/09 05:48:21;;;;;;;30.25;8.25;;;;;;;13.72;99.40;100930.53;4928183;28;20038;-77
2022/06/09 05:50:47;;;;;;;26.48;9.38;;;;;;;13.82;99.33;100935.53;4944349;28;20508;-75
2022/06/09 05:53:12;;;;;;;32.97;9.50;;;;;;;13.88;99.19;100939.22;4945094;28;20039;-72
2022/06/09 05:55:38;;;;;;;32.88;9.98;;;;;;;13.78;99.68;100947.28;4943296;28;20027;-76
2022/06/09 05:58:03;;;;;;;27.35;10.25;;;;;;;13.82;99.09;100943.34;4953542;28;20080;-76
2022/06/09 06:00:30;;;;;;;26.42;9.15;;;;;;;13.88;98.61;100949.66;4940973;28;20035;-76
2022/06/09 06:02:57;;;;;;;26.23;9.38;;;;;;;13.96;99.02;100947.00;4932109;28;20090;-76
2022/06/09 06:08:07;;;;;;;30.27;9.52;;;;;;;14.37;97.30;100951.84;4945656;28;20031;-75
2022/06/09 06:10:32;;;;;;;26.52;8.93;;;;;;;14.40;95.81;100957.53;4945685;28;20114;-75
2022/06/09 06:12:58;;;;;;;27.52;9.48;;;;;;;14.54;96.62;100955.97;4943458;28;20403;-77
2022/06/09 06:15:23;;;;;;;29.38;10.02;;;;;;;14.82;95.91;100962.38;4946590;28;20048;-77
2022/06/09 06:17:49;;;;;;;23.60;10.35;;;;;;;14.86;94.66;100959.25;4942977;28;20153;-75
2022/06/09 06:20:14;;;;;;;33.83;9.98;;;;;;;14.98;93.86;100965.63;4946491;28;20373;-76
2022/06/09 06:22:40;;;;;;;24.48;8.88;;;;;;;15.07;94.53;100963.75;4945123;28;20145;-75
2022/06/09 06:25:06;;;;;;;23.42;9.60;;;;;;;15.11;92.84;100966.81;4933929;28;20038;-76
2022/06/09 06:27:32;;;;;;;29.25;10.05;;;;;;;15.21;92.65;100961.28;4942663;28;20031;-76
2022/06/09 06:29:57;;;;;;;27.25;9.15;;;;;;;15.16;93.26;100967.03;4946522;28;20039;-76
2022/06/09 06:32:23;;;;;;;21.50;9.07;;;;;;;15.16;93.17;100975.72;4927797;28;20034;-74
2022/06/09 06:34:48;;;;;;;24.52;9.38;;;;;;;15.10;92.07;100976.41;4949865;28;20035;-77
2022/06/09 06:37:14;;;;;;;30.27;9.35;;;;;;;14.93;92.48;100975.78;4926068;29;20519;-75
2022/06/09 06:39:39;;;;;;;28.77;9.43;;;;;;;14.89;93.58;100987.59;4945478;28;20035;-77
2022/06/09 06:42:05;;;;;;;22.77;10.75;;;;;;;15.02;92.55;100991.38;4945675;28;20031;-77
2022/06/09 06:44:35;;;;;;;29.05;12.75;;;;;;;14.91;92.85;101000.47;4945941;28;20035;-76
2022/06/09 06:47:00;;;;;;;24.90;12.15;;;;;;;14.91;93.01;100993.44;4944145;28;20058;-77
2022/06/09 06:49:26;;;;;;;31.77;10.63;;;;;;;15.49;91.64;100995.38;4939895;28;20093;-77
2022/06/09 06:51:51;;;;;;;27.75;10.05;;;;;;;16.02;90.12;100988.13;4945521;28;20077;-75
2022/06/09 06:54:17;;;;;;;27.33;10.93;;;;;;;16.09;88.17;100998.66;4947666;28;20027;-78
2022/06/09 06:56:42;;;;;;;25.48;10.10;;;;;;;16.08;87.47;101007.47;4956589;28;20039;-76
2022/06/09 06:59:08;;;;;;;28.52;11.38;;;;;;;15.97;88.23;101003.56;4944640;28;20089;-74
2022/06/09 07:01:34;;;;;;;24.75;10.25;;;;;;;15.91;87.79;101014.75;4941554;28;20031;-77
2022/06/09 07:04:00;;;;;;;26.52;11.75;;;;;;;15.61;88.21;101019.22;4959792;28;20223;-76
2022/06/09 07:06:25;;;;;;;27.05;10.43;;;;;;;15.51;88.52;101028.16;4960502;28;20034;-76
2022/06/09 07:08:51;;;;;;;26.45;11.48;;;;;;;15.48;88.12;101032.94;4947805;28;20039;-79
2022/06/09 07:11:16;;;;;;;29.33;12.43;;;;;;;15.29;88.88;101032.50;4941807;28;20039;-78
2022/06/09 07:13:43;;;;;;;23.92;12.48;;;;;;;15.28;89.83;101030.91;4948852;28;20031;-77
2022/06/09 07:16:09;;;;;;;31.88;12.60;;;;;;;15.15;89.85;101031.53;4946277;28;20389;-77
2022/06/09 07:18:37;;;;;;;27.50;13.07;;;;;;;15.40;89.65;101038.28;4945956;28;20035;-76
2022/06/09 07:21:03;;;;;;;27.95;12.32;;;;;;;15.80;89.30;101034.34;4942108;28;20047;-77
2022/06/09 07:23:29;;;;;;;28.02;11.93;;;;;;;16.04;87.24;101041.03;4946895;28;20095;-79
2022/06/09 07:25:56;;;;;;;30.05;11.38;;;;;;;15.89;86.90;101037.66;4961353;28;20050;-77
2022/06/09 07:28:22;;;;;;;26.70;11.43;;;;;;;16.31;85.79;101051.75;4945839;28;20480;-78
2022/06/09 07:30:48;;;;;;;22.58;9.88;;;;;;;17.16;81.17;101044.78;4947923;28;20023;-76
2022/06/09 07:33:14;;;;;;;28.15;9.45;;;;;;;18.14;78.19;101044.53;4947951;28;20047;-79
2022/06/09 07:35:40;;;;;;;23.90;9.05;;;;;;;17.92;76.12;101048.31;4942390;28;20094;-76
2022/06/09 07:38:09;;;;;;;22.27;8.75;;;;;;;18.06;76.03;101040.28;4945860;28;20035;-78
2022/06/09 07:40:37;;;;;;;20.00;8.18;;;;;;;18.76;74.68;101046.94;4960702;28;20079;-78
2022/06/09 07:43:03;;;;;;;22.67;8.27;;;;;;;18.92;72.77;101041.28;4952118;28;20044;-77
2022/06/09 07:45:29;;;;;;;17.70;7.57;;;;;;;18.38;73.73;101053.59;4962380;28;20046;-78
2022/06/09 07:47:54;;;;;;;13.77;6.47;;;;;;;17.73;74.51;101061.13;4948928;28;20050;-76
2022/06/09 07:50:20;;;;;;;14.55;6.53;;;;;;;17.74;76.03;101061.94;4946261;28;20476;-77
2022/06/09 07:52:47;;;;;;;19.63;7.57;;;;;;;18.79;71.98;101057.84;4959120;28;20189;-76
2022/06/09 07:55:14;;;;;;;22.33;6.57;;;;;;;18.85;71.35;101061.50;4960224;28;20051;-76
2022/06/09 07:57:40;;;;;;;17.85;6.78;;;;;;;18.55;71.04;101053.22;4947506;28;20035;-77
2022/06/09 08:00:07;;;;;;;11.93;6.70;;;;;;;18.52;71.40;101059.69;4942754;28;20181;-77
2022/06/09 08:02:37;;;;;;;20.48;8.77;;;;;;;18.46;72.58;101063.13;4945764;28;20067;-76
2022/06/09 08:05:04;;;;;;;22.73;7.13;;;;;;;18.80;73.58;101061.28;4948478;28;20086;-78
2022/06/09 08:07:30;;;;;;;20.15;6.97;;;;;;;19.20;72.35;101067.28;4929196;28;20035;-76
2022/06/09 08:09:55;;;;;;;14.50;7.00;;;;;;;19.67;69.86;101058.44;4948970;28;20043;-76
2022/06/09 08:12:21;;;;;;;17.38;6.47;;;;;;;20.28;66.81;101068.41;4942746;28;20039;-77
2022/06/09 08:14:46;;;;;;;18.17;6.55;;;;;;;20.70;66.63;101066.09;4946488;28;21405;-76
2022/06/09 08:17:12;;;;;;;13.35;6.05;;;;;;;20.79;65.31;101064.78;4945816;28;20039;-77
2022/06/09 08:19:37;;;;;;;15.60;5.63;;;;;;;21.01;62.85;101072.25;4945190;28;20039;-77
2022/06/09 08:22:03;;;;;;;17.92;6.82;;;;;;;21.40;63.90;101072.84;4929986;28;20043;-77
2022/06/09 08:24:33;;;;;;;15.43;6.38;;;;;;;21.20;62.77;101079.16;4957919;28;20043;-76
2022/06/09 08:26:59;;;;;;;12.60;4.70;;;;;;;20.47;64.88;101090.34;4947427;28;20073;-77
2022/06/09 08:29:25;;;;;;;13.95;4.30;;;;;;;21.02;62.90;101083.59;4945128;28;20090;-75
2022/06/09 08:31:51;;;;;;;9.65;4.22;;;;;;;20.72;61.90;101089.56;4944792;28;20047;-76
2022/06/09 08:34:16;;;;;;;10.68;4.13;;;;;;;20.39;63.62;101095.88;4936393;29;20187;-79
2022/06/09 08:36:42;;;;;;;19.98;5.78;;;;;;;20.09;63.11;101095.66;4949706;28;20031;-77
2022/06/09 08:39:08;;;;;;;8.90;3.25;;;;;;;20.30;64.46;101103.22;4961670;28;20030;-76
2022/06/09 08:41:39;;;;;;;14.40;5.07;;;;;;;20.16;64.83;101110.41;4949454;28;20075;-74
2022/06/09 08:44:31;;;;;;;13.45;4.22;;;;;;;20.22;67.31;101114.00;4949546;28;20074;-79
2022/06/09 08:47:19;;;;;;;14.95;6.45;;;;;;;20.17;68.00;101111.19;4965253;28;20039;-76
2022/06/09 08:50:01;;;;;;;12.63;4.90;;;;;;;20.06;65.76;101119.78;4946034;28;20354;-77
2022/06/09 08:52:58;;;;;;;23.63;6.13;;;;;;;20.07;66.73;101118.75;4946666;28;20035;-77
2022/06/09 08:55:32;;;;;;;13.88;5.25;;;;;;;20.56;64.59;101118.03;4947021;28;20031;-77
2022/06/09 08:58:38;;;;;;;13.85;5.63;;;;;;;20.68;64.71;101123.47;4951367;28;20045;-79
2022/06/09 09:01:12;;;;;;;23.77;6.25;;;;;;;21.06;64.52;101122.50;4959313;28;20497;-78
2022/06/09 09:03:42;;;;;;;14.43;5.43;;;;;;;21.58;62.94;101119.53;4944191;28;20039;-78
2022/06/09 09:06:33;;;;;;;10.88;4.85;;;;;;;22.06;60.03;101115.28;4945946;28;20046;-79
2022/06/09 09:09:01;;;;;;;12.55;4.45;;;;;;;;;;4967002;28;20389;-76
2022/06/09 09:11:42;;;;;;;12.02;3.70;;;;;;;21.69;59.62;101113.50;4943093;28;20035;-77
2022/06/09 09:14:20;;;;;;;10.40;4.50;;;;;;;21.03;61.25;101127.41;4950149;28;20297;-80
2022/06/09 09:16:58;;;;;;;13.10;4.20;;;;;;;20.80;62.49;101126.19;4950847;28;20039;-78
2022/06/09 09:19:54;;;;;;;16.73;5.38;;;;;;;20.38;64.20;101131.94;4946308;28;20051;-78
2022/06/09 09:22:25;;;;;;;14.02;4.68;;;;;;;20.33;63.83;101139.66;4944394;28;20070;-76
2022/06/09 09:25:03;;;;;;;13.18;5.15;;;;;;;20.09;63.92;101145.69;4932117;28;21348;-78
2022/06/09 09:27:41;;;;;;;9.55;4.45;;;;;;;20.37;62.95;101147.94;4958961;28;20046;-79
2022/06/09 09:30:13;;;;;;;11.95;5.00;;;;;;;20.45;63.14;101160.06;4944830;28;20070;-79
2022/06/09 09:32:45;;;;;;;9.85;4.22;;;;;;;20.63;63.05;101154.91;4947699;28;20032;-77
2022/06/09 09:35:19;;;;;;;13.50;4.70;;;;;;;20.54;62.29;101153.50;4944371;28;20307;-77
2022/06/09 09:37:49;;;;;;;12.15;4.43;;;;;;;20.23;63.39;101163.03;4948258;28;20122;-78
2022/06/09 09:40:14;;;;;;;8.50;3.90;;;;;;;20.63;62.98;101165.44;4949976;28;20039;-78
2022/06/09 09:42:42;;;;;;;11.00;4.40;;;;;;;21.05;62.62;101162.25;4944525;28;20179;-77
2022/06/09 09:45:11;;;;;;;7.35;3.78;;;;;;;21.52;61.54;101158.16;4949789;28;20734;-76
2022/06/09 09:47:54;;;;;;;11.20;3.88;;;;;;;21.18;61.15;101168.19;4941748;28;20507;-78
2022/06/09 09:50:28;;;;;;;13.07;5.10;;;;;;;20.82;62.08;101168.13;4948001;28;20507;-74
2022/06/09 09:53:19;;;;;;;15.18;4.47;;;;;;;20.28;62.21;101178.19;4947620;28;20499;-75
2022/06/09 09:55:56;;;;;;;13.35;4.40;;;;;;;20.12;63.28;101179.50;4941742;28;20484;-76
2022/06/09 09:58:27;;;;;;;11.60;3.85;;;;;;;20.08;62.59;101183.53;4946110;28;20039;-77
2022/06/09 10:00:57;;;;;;;14.23;4.22;;;;;;;20.17;63.33;101185.75;4945958;28;20098;-77
2022/06/09 10:09:14;;;;;;;11.57;4.53;;;;;;;19.74;64.29;101199.47;4946259;28;21606;-77
2022/06/09 10:11:57;;;;;;;10.60;4.15;;;;;;;19.84;63.88;101199.03;4960799;28;20141;-78
2022/06/09 10:14:38;;;;;;;13.38;3.40;;;;;;;19.80;63.44;101203.88;4943634;28;20420;-75
2022/06/09 10:17:20;;;;;;;14.80;4.82;;;;;;;20.09;64.29;101198.31;4947531;28;20718;-78
2022/06/09 10:20:25;;;;;;;9.15;3.58;;;;;;;20.51;64.43;101203.97;4929402;28;20570;-77
2022/06/09 10:23:06;;;;;;;9.05;2.72;;;;;;;21.03;63.14;101203.84;4944524;28;20043;-78
2022/06/09 10:25:51;;;;;;;7.72;3.38;;;;;;;20.98;61.59;101212.38;4945192;28;20047;-77
2022/06/09 10:28:34;;;;;;;7.05;2.90;;;;;;;20.74;60.82;101221.91;4943460;28;20035;-78
2022/06/09 10:31:12;;;;;;;6.97;3.00;;;;;;;20.90;62.26;101205.56;4940734;28;20608;-77
2022/06/09 10:33:40;;;;;;;10.82;3.40;;;;;;;21.15;60.28;101210.84;4961619;28;20039;-78
2022/06/09 10:36:19;;;;;;;9.13;3.50;;;;;;;21.16;60.41;101212.44;4945310;28;20035;-80
2022/06/09 10:38:48;;;;;;;8.65;3.13;;;;;;;21.30;59.42;101220.22;4945942;28;20466;-77
2022/06/09 10:41:21;;;;;;;8.15;3.40;;;;;;;21.41;59.51;101214.25;4948128;28;20504;-77
2022/06/09 10:43:49;;;;;;;14.88;3.85;;;;;;;21.61;57.47;101226.47;4960247;28;20442;-78
2022/06/09 10:46:19;;;;;;;9.38;3.33;;;;;;;21.30;58.84;101214.94;4946581;28;20121;-78
2022/06/09 10:57:49;;;;;;;12.15;2.92;;;;;;;20.83;58.64;101232.97;4939969;28;20032;-79
2022/06/09 11:00:21;;;;;;;8.23;2.30;;;;;;;20.70;60.38;101229.44;4945130;28;20035;-77
2022/06/09 11:02:51;;;;;;;8.95;2.60;;;;;;;20.36;60.02;101234.03;4957710;28;20050;-78
2022/06/09 11:05:20;;;;;;;6.47;2.63;;;;;;;20.49;60.77;101238.41;4945292;28;20031;-77
2022/06/09 11:08:08;;;;;;;13.57;3.72;;;;;;;20.43;60.36;101245.31;4946097;28;20042;-77
2022/06/09 11:10:51;;;;;;;6.72;2.15;;;;;;;20.31;62.93;101254.94;4941208;28;20046;-76
2022/06/09 11:13:34;;;;;;;9.07;2.80;;;;;;;20.03;63.32;101255.25;4923946;29;20042;-77
2022/06/09 11:16:10;;;;;;;7.15;2.78;;;;;;;19.81;62.51;101262.56;4937488;28;20045;-77
2022/06/09 11:18:45;;;;;;;7.40;2.20;;;;;;;19.88;63.79;101260.75;4948193;28;20037;-77
2022/06/09 11:21:21;;;;;;;5.82;2.13;;;;;;;19.99;63.06;101259.31;4945816;28;20043;-78
2022/06/09 11:24:15;;;;;;;3.78;1.40;;;;;;;20.07;61.02;101264.31;4939923;28;20745;-77
2022/06/09 11:26:58;;;;;;;3.85;1.60;;;;;;;20.31;60.23;101262.03;4945438;28;20043;-77
2022/06/09 11:29:35;;;;;;;5.05;1.40;;;;;;;20.35;60.41;101265.84;4947252;28;20139;-77
2022/06/09 11:32:14;;;;;;;4.43;1.63;;;;;;;20.36;61.11;101257.75;4958578;28;20051;-75
2022/06/09 11:34:39;;;;;;;7.18;2.60;;;;;;;20.54;60.50;101261.50;4960429;28;20043;-78
2022/06/09 11:37:27;;;;;;;12.20;2.42;;;;;;;20.89;60.88;101261.09;4925010;28;20110;-76
2022/06/09 11:40:11;;;;;;;7.43;3.25;;;;;;;21.31;59.17;101264.84;4938085;28;20035;-77
2022/06/09 11:42:54;;;;;;;7.18;2.80;;;;;;;21.85;61.36;101261.72;4939975;28;20336;-77
2022/06/09 11:45:31;;;;;;;9.25;2.47;;;;;;;22.21;59.22;101260.91;4944132;28;20039;-78
2022/06/09 11:48:01;;;;;;;7.00;2.38;;;;;;;22.43;59.53;101269.19;4945369;28;20176;-79
2022/06/09 11:50:39;;;;;;;6.13;2.83;;;;;;;22.14;57.06;101268.91;4937620;28;20039;-78
2022/06/09 11:53:06;;;;;;;9.25;3.55;;;;;;;22.48;56.28;101268.53;4961620;28;20046;-76
2022/06/09 11:58:34;;;;;;;6.32;3.40;;;;;;;22.55;56.59;101275.31;4937290;28;20035;-76